Terminal Aerodrome Forecast
Issued by NWS

Home | Current Version | Previous Version | Graphics & Text | Print | Product List | Glossary On
Versions: 1 2 3 4 5 6 7 8 9 10 11 12 13 14 15 16 17
000
FTUS43 KICT 210819 AAC
TAFCNU
TAF AMD
KCNU 210819Z 2108/2206 VRB03KT 1/4SM FG VV002
      TEMPO 2110/2112 2SM BR SCT002
     FM211200 35006KT 4SM BR SKC
     FM211500 35012KT P6SM SKC
     FM220000 VRB04KT P6SM SKC=

USA.gov is the U.S. government's official web portal to all federal, state and local government web resources and services.